Sunday, January 20, 2019, 2:12 AM EST
Back to Local

KRUT, Rutland, Rutland-southern Vermont Regional Airport

Location: North Clarendon, VT, United States Lat: 43.533
Local Time: 2:12 AM EST ( 7:12 GMT) Lon: -72.95
Time Zone: US/Eastern Elev: 787 ft

Show me the last for .
Show Decoded

2019-01-20 01:56 METAR KRUT 200656Z AUTO 00000KT 1/2SM SN FZFG OVC004 M14/M16 A2990 RMK AO2
                 SLP149 P0000 T11391156 FZRANO $ =
2019-01-20 00:56 METAR KRUT 200556Z AUTO 32004KT 1/2SM SN FZFG BKN006 OVC012 M17/M19 A2995 RMK
                 AO2 PRESFR SLP165 P0000 60000 T11721189 11161 21172 58044 FZRANO $ =
2019-01-20 00:50 METAR KRUT 200550Z AUTO 33005KT 1/2SM SN FZFG BKN008 OVC014 M17/M19 A2996 RMK
                 AO2 CIG 006V011 PRESFR P0000 FZRANO $ =
2019-01-20 00:47 METAR KRUT 200547Z AUTO 33005KT 3/4SM -SN BR SCT008 BKN014 OVC019 M17/M19 A2997
                 RMK AO2 PRESFR P0000 FZRANO $ =
2019-01-20 00:38 METAR KRUT 200538Z AUTO 32004KT 1SM -SN BR BKN013 OVC019 M17/M19 A2999 RMK AO2
                 P0000 FZRANO $ =
2019-01-20 00:32 METAR KRUT 200532Z AUTO VRB03KT 1 1/4SM -SN BR BKN015 BKN020 OVC025 M17/M19
                 A3000 RMK AO2 P0000 FZRANO $ =
2019-01-20 00:13 METAR KRUT 200513Z AUTO 35005KT 2SM -SN BR OVC023 M17/M19 A3001 RMK AO2 P0000
                 FZRANO $ =
2019-01-19 23:56 METAR KRUT 200456Z AUTO 33005KT 1 3/4SM -SN BR OVC021 M17/M19 A3004 RMK AO2
                 SLP196 P0000 T11721189 410391172 FZRANO $ =
2019-01-19 22:56 METAR KRUT 200356Z AUTO 33006KT 2SM -SN BR OVC019 M17/M19 A3008 RMK AO2 SLP209
                 P0000 T11721194 FZRANO $ =
2019-01-19 22:21 METAR KRUT 200321Z AUTO 35005KT 2 1/2SM -SN BR BKN026 BKN034 OVC043 M17/M19
                 A3010 RMK AO2 P0000 FZRANO $ =
2019-01-19 21:56 METAR KRUT 200256Z AUTO 36006KT 7SM -SN SCT049 BKN060 OVC075 M17/M19 A3012 RMK
                 AO2 SLP222 P0000 60000 T11671189 56023 FZRANO $ =
2019-01-19 20:56 METAR KRUT 200156Z AUTO 35006KT 3SM -SN BR OVC035 M17/M18 A3013 RMK AO2 SLP227
                 P0000 T11671183 FZRANO $ =
2019-01-19 20:48 METAR KRUT 200148Z AUTO 35004KT 3SM -SN BR OVC035 M17/M18 A3014 RMK AO2 P0000
                 FZRANO $ =
2019-01-19 20:28 METAR KRUT 200128Z AUTO 35004KT 2SM -SN BR SCT023 OVC031 M17/M18 A3016 RMK AO2
                 P0000 FZRANO $ =
2019-01-19 19:56 METAR KRUT 200056Z AUTO 35005KT 1 1/2SM -SN BR OVC019 M17/M19 A3019 RMK AO2 VIS
                 1 1/4V2 SLP246 P0000 T11671189 FZRANO $ =
2019-01-19 19:17 METAR KRUT 200017Z AUTO 34006KT 1 1/4SM -SN BR BKN016 OVC024 M16/M18 A3021 RMK
                 AO2 P0000 FZRANO $ =
2019-01-19 18:56 METAR KRUT 192356Z AUTO 35004KT 2SM -SN BR SCT017 OVC025 M16/M18 A3020 RMK AO2
                 SLP252 P0000 60000 T11611183 11117 21161 55013 FZRANO $ =
2019-01-19 17:56 METAR KRUT 192256Z AUTO 35006KT 1 1/4SM -SN BR OVC017 M16/M18 A3020 RMK AO2
                 SLP251 P0000 T11611183 FZRANO $ =
2019-01-19 17:02 METAR KRUT 192202Z AUTO 36006KT 1 1/4SM -SN BR BKN017 OVC022 M16/M18 A3023 RMK
                 AO2 P0000 FZRANO $ =
2019-01-19 16:56 METAR KRUT 192156Z AUTO 36004KT 3/4SM -SN BR OVC019 M16/M18 A3024 RMK AO2 SLP262
                 P0000 T11561178 FZRANO $ =
2019-01-19 16:50 METAR KRUT 192150Z AUTO 34005KT 1SM -SN BR OVC021 M16/M18 A3024 RMK AO2 P0000
                 FZRANO $ =
2019-01-19 16:32 METAR KRUT 192132Z AUTO 33005KT 1 3/4SM -SN BR BKN025 BKN034 OVC044 M16/M18
                 A3025 RMK AO2 P0000 FZRANO $ =
2019-01-19 16:13 METAR KRUT 192113Z AUTO 35006KT 3SM -SN BR SCT029 BKN045 OVC050 M15/M17 A3024
                 RMK AO2 P0000 FZRANO $ =
2019-01-19 16:10 METAR KRUT 192110Z AUTO 34004KT 2 1/2SM -SN BR FEW020 BKN029 OVC050 M15/M17
                 A3024 RMK AO2 VIS 1 1/2V4 P0000 FZRANO $ =
2019-01-19 15:56 METAR KRUT 192056Z AUTO 36005KT 1 1/2SM -SN BR SCT018 OVC027 M15/M17 A3024 RMK
                 AO2 VIS 1V2 1/2 SLP265 P0000 60000 T11501172 50000 FZRANO $ =
2019-01-19 15:34 METAR KRUT 192034Z AUTO 34004KT 1SM -SN BR BKN018 BKN025 OVC045 M15/M17 A3026
                 RMK AO2 P0000 FZRANO $ =
2019-01-19 15:29 METAR KRUT 192029Z AUTO 34004KT 2SM -SN SCT020 BKN025 OVC045 M15/M18 A3026 RMK
                 AO2 VIS 1 1/4V4 P0000 FZRANO $ =
2019-01-19 15:23 METAR KRUT 192023Z AUTO 34005KT 4SM -SN FEW026 BKN037 OVC045 M14/M17 A3026 RMK
                 AO2 P0000 FZRANO $ =
2019-01-19 14:56 METAR KRUT 191956Z AUTO 33005KT 2SM -SN SCT030 OVC037 M14/M17 A3025 RMK AO2
                 SLP267 P0000 T11441172 FZRANO / =
2019-01-19 14:50 METAR KRUT 191950Z AUTO 34006KT 3SM -SN BKN032 OVC040 M14/M17 A3025 RMK AO2
                 P0000 FZRANO $ =
2019-01-19 14:15 METAR KRUT 191915Z AUTO 34007KT 2SM -SN OVC031 M13/M17 A3025 RMK AO2 P0000
                 FZRANO $ =
2019-01-19 13:56 METAR KRUT 191856Z AUTO 36007KT 7SM -SN SCT030 BKN036 OVC048 M13/M18 A3024 RMK
                 AO2 SNB50 SLP262 P0000 T11281178 FZRANO $ =
2019-01-19 12:56 METAR KRUT 191756Z AUTO 36006KT 10SM SCT050 OVC065 M12/M17 A3024 RMK AO2 PRESFR
                 SLP266 60000 T11171172 11117 21128 58034 FZRANO $ =
2019-01-19 11:56 METAR KRUT 191656Z AUTO 34004KT 10SM FEW080 M12/M17 A3029 RMK AO2 SLP279
                 T11171172 FZRANO $ =
2019-01-19 10:56 METAR KRUT 191556Z AUTO 34006KT 10SM BKN080 M12/M18 A3033 RMK AO2 PRESFR SLP293
                 T11221178 FZRANO $ =
2019-01-19 10:25 METAR KRUT 191525Z AUTO 01005KT 10SM SCT019 M12/M17 A3036 RMK AO2 FZRANO $ =
2019-01-19 09:56 METAR KRUT 191456Z AUTO 34004KT 10SM OVC017 M12/M17 A3034 RMK AO2 SNB18E29
                 SLP298 P0000 60000 T11221167 53024 FZRANO $ =
2019-01-19 08:56 METAR KRUT 191356Z AUTO 35007KT 9SM BKN015 OVC100 M13/M16 A3031 RMK AO2 SNE56
                 SLP287 P0000 T11281161 FZRANO $ =
2019-01-19 07:56 METAR KRUT 191256Z AUTO 34004KT 9SM -SN BKN013 M12/M14 A3029 RMK AO2 SLP278
                 P0000 T11221144 FZRANO $ =
2019-01-19 07:33 METAR KRUT 191233Z AUTO 36004KT 9SM -SN BKN013 M13/M14 A3027 RMK AO2 P0000
                 FZRANO $ =
2019-01-19 06:56 METAR KRUT 191156Z AUTO 33005KT 9SM -SN BKN035 M12/M14 A3027 RMK AO2 SLP272
                 P0000 60000 T11221144 11061 21122 53021 FZRANO $ =
2019-01-19 05:56 METAR KRUT 191056Z AUTO 35008KT 9SM -SN OVC033 M11/M13 A3024 RMK AO2 SLP264
                 P0000 T11061128 FZRANO $ =
2019-01-19 05:35 METAR KRUT 191035Z AUTO 35006KT 9SM -SN OVC031 M11/M13 A3024 RMK AO2 P0000
                 FZRANO $ =
2019-01-19 04:56 METAR KRUT 190956Z AUTO 36008KT 9SM -SN FEW014 BKN028 OVC038 M10/M12 A3022 RMK
                 AO2 SNB05 SLP255 P0000 T11001122 FZRANO $ =
2019-01-19 03:56 METAR KRUT 190856Z AUTO 02006KT 10SM BKN028 M09/M12 A3021 RMK AO2 SLP251 60000
                 T10891117 53018 FZRANO $ =
2019-01-19 02:56 METAR KRUT 190756Z AUTO 35004KT 10SM CLR M08/M11 A3019 RMK AO2 SNE20B37E47
                 SLP244 P0000 T10781111 FZRANO $ =
2019-01-19 02:31 METAR KRUT 190731Z AUTO 32007KT 10SM FEW027 BKN040 M07/M11 A3017 RMK AO2 SNE20
                 P0000 FZRANO $ =

Support USWX by starting your Amazon purchase here.